Estación Meteorológica Peña el Pijo (Robertgarden) [ 08/22/19 14:54:16 CEST ]

Fecha Hora Presion(HPa) Temp (°C) Humedad % Rocio (°C) Viento ( m/s) Direccion Lluvia 1Hora(mm) Lluvia 24H(mm) LLuvia Total(mm)
2019-Feb-20 01:01:43 1010.200 0.7 78 -2.7         183.37
2019-Feb-20 02:03:13 1010.100 0.6 79 -2.6         183.37
2019-Feb-20 03:01:47 1010.200 0.3 80 -2.7         183.37
2019-Feb-20 04:01:33 1010.100 0.4 82 -2.3         183.37
2019-Feb-20 05:02:02 1009.700 0.5 82 -2.2         183.37
2019-Feb-20 06:01:55 1009.800 0.3 83 -2.2         183.37
2019-Feb-20 07:01:44 1010.000 0.6 84 -1.8         183.37
2019-Feb-20 08:01:48 1010.400 -0.1 84 -2.5         183.37
2019-Feb-20 09:01:55 1011.300 1.0 85 -1.3         183.37
2019-Feb-20 10:01:42 1011.400 6.3 85 3.9         183.37
2019-Feb-20 11:01:38 1011.300 12.4 63 5.5         183.37
2019-Feb-20 12:01:50 1011.600 14.7 43 2.2         183.37
2019-Feb-20 13:01:47 1011.500 14.8 39 0.9         183.37
2019-Feb-20 14:01:49 1011.300 14.9 37 0.2         183.37
2019-Feb-20 15:01:42 1011.200 15.1 37 0.4         183.37
2019-Feb-20 16:01:52 1011.000 15.6 34 -0.3         183.37
2019-Feb-20 17:01:33 1011.000 14.7 29 -3.2         183.37
2019-Feb-20 18:01:57 1011.400 11.6 34 -3.8         183.37
2019-Feb-20 19:01:38 1012.000 9.3 43 -2.7         183.37
2019-Feb-20 20:01:36 1012.700 6.9 50 -2.8         183.37
2019-Feb-20 21:01:54 1013.300 3.8 57 -4.0         183.37
2019-Feb-20 22:01:37 1014.100 2.8 62 -3.8         183.37
2019-Feb-20 23:01:44 1014.500 1.9 66 -3.8         183.37

Temperatura Máxima:15°    Temperatura Mínima:
Presión Máxima:1014.500 Hpa    Presión Mínima:1009.700 Hpa


Volver